createdAt,value
2023-02-18T00:01:24.032Z,50.17
2023-02-18T00:03:52.289Z,53.77
2023-02-18T00:06:23.543Z,54.47
2023-02-18T00:08:51.455Z,52.67
2023-02-18T00:11:20.197Z,55.43
2023-02-18T00:13:51.559Z,51.23
2023-02-18T00:16:19.409Z,50.80
2023-02-18T00:18:47.306Z,50.07
2023-02-18T00:21:15.414Z,54.67
2023-02-18T00:23:44.603Z,53.40
2023-02-18T00:26:14.299Z,54.87
2023-02-18T00:28:42.229Z,53.70
2023-02-18T00:31:11.403Z,52.37
2023-02-18T00:33:40.104Z,54.33
2023-02-18T00:36:10.808Z,51.77
2023-02-18T00:38:38.831Z,55.47
2023-02-18T00:41:08.030Z,56.07
2023-02-18T00:43:35.854Z,57.27
2023-02-18T00:46:03.617Z,55.27
2023-02-18T00:48:31.477Z,56.43
2023-02-18T00:51:00.759Z,58.60
2023-02-18T00:53:28.700Z,57.97
2023-02-18T00:55:56.882Z,53.63
2023-02-18T00:58:26.573Z,55.80
2023-02-18T01:00:54.792Z,58.33
2023-02-18T01:03:23.948Z,55.57
2023-02-18T01:05:52.278Z,55.67
2023-02-18T01:08:21.763Z,56.30
2023-02-18T01:10:51.562Z,55.27
2023-02-18T01:13:20.917Z,56.23
2023-02-18T01:15:50.098Z,59.97
2023-02-18T01:18:18.062Z,56.17
2023-02-18T01:20:46.398Z,55.33
2023-02-18T01:23:14.910Z,54.20
2023-02-18T01:25:43.259Z,53.70
2023-02-18T01:28:12.940Z,54.00
2023-02-18T01:30:41.119Z,54.00
2023-02-18T01:33:10.702Z,55.13
2023-02-18T01:35:39.017Z,54.57
2023-02-18T01:38:06.785Z,56.30
2023-02-18T01:40:34.966Z,57.77
2023-02-18T01:43:02.872Z,60.03
2023-02-18T01:46:14.103Z,61.60
2023-02-18T01:48:45.072Z,62.87
2023-02-18T01:51:14.684Z,59.27
2023-02-18T01:53:47.491Z,59.23
2023-02-18T01:56:21.383Z,59.00
2023-02-18T01:58:49.837Z,56.80
2023-02-18T02:01:17.928Z,58.23
2023-02-18T02:03:47.032Z,58.47
2023-02-18T02:06:18.151Z,59.10
2023-02-18T02:08:47.350Z,57.97
2023-02-18T02:11:26.188Z,58.97
2023-02-18T02:14:14.940Z,61.23
2023-02-18T02:16:46.705Z,56.27
2023-02-18T02:20:04.801Z,56.97
2023-02-18T02:23:04.255Z,55.33
2023-02-18T02:25:49.417Z,53.37
2023-02-18T02:28:52.713Z,59.83
2023-02-18T02:31:47.526Z,57.60
2023-02-18T02:34:40.549Z,57.73
2023-02-18T02:37:14.095Z,59.70
2023-02-18T02:39:48.637Z,58.03
2023-02-18T02:42:22.342Z,59.20
2023-02-18T02:44:56.279Z,58.70
2023-02-18T02:47:28.790Z,60.70
2023-02-18T02:50:02.556Z,60.40
2023-02-18T02:52:32.446Z,70.27
2023-02-18T02:55:00.277Z,68.03
2023-02-18T02:57:46.984Z,68.20
2023-02-18T03:00:16.102Z,64.80
2023-02-18T03:03:10.603Z,63.43
2023-02-18T03:06:02.787Z,60.67
2023-02-18T03:08:38.932Z,62.00
2023-02-18T03:11:08.575Z,62.37
2023-02-18T03:13:49.287Z,63.20
2023-02-18T03:16:25.084Z,61.00
2023-02-18T03:18:59.220Z,67.23
2023-02-18T03:21:30.992Z,67.40
2023-02-18T03:24:01.569Z,65.90
2023-02-18T03:26:30.959Z,67.80
2023-02-18T03:29:01.726Z,66.87
2023-02-18T03:31:31.202Z,64.67
2023-02-18T03:34:02.555Z,64.93
2023-02-18T03:36:32.609Z,66.67
2023-02-18T03:41:57.129Z,63.53
2023-02-18T03:44:25.927Z,63.90
2023-02-18T03:46:53.759Z,69.47
2023-02-18T03:49:21.580Z,68.40
2023-02-18T03:51:50.942Z,68.83
2023-02-18T03:54:18.644Z,67.80
2023-02-18T03:56:46.453Z,68.20
2023-02-18T03:59:14.604Z,67.80
2023-02-18T04:01:42.558Z,69.00
2023-02-18T04:04:10.695Z,68.50
2023-02-18T04:06:38.476Z,66.90
2023-02-18T04:09:09.086Z,67.93
2023-02-18T04:11:37.897Z,68.93
2023-02-18T04:14:05.804Z,71.03
2023-02-18T04:16:33.946Z,71.07
2023-02-18T04:19:01.828Z,68.97
2023-02-18T04:21:29.728Z,69.77
2023-02-18T04:23:57.551Z,71.40
2023-02-18T04:26:26.740Z,68.90
2023-02-18T04:28:54.571Z,69.70
2023-02-18T04:31:22.656Z,70.33
2023-02-18T04:33:50.513Z,69.40
2023-02-18T04:36:18.363Z,69.70
2023-02-18T04:38:46.203Z,70.13
2023-02-18T04:41:13.981Z,68.37
2023-02-18T04:43:43.191Z,71.03
2023-02-18T04:46:11.310Z,67.87
2023-02-18T04:48:39.322Z,65.47
2023-02-18T04:51:07.521Z,66.83
2023-02-18T04:53:35.600Z,68.07
2023-02-18T04:56:03.531Z,67.93
2023-02-18T04:58:31.334Z,67.60
2023-02-18T05:01:02.394Z,65.63
2023-02-18T05:03:30.517Z,63.93
2023-02-18T05:05:58.768Z,63.27
2023-02-18T05:08:26.672Z,60.13
2023-02-18T05:10:54.466Z,61.30
2023-02-18T05:13:22.834Z,60.63
2023-02-18T05:15:50.693Z,59.60
2023-02-18T05:18:19.919Z,62.47
2023-02-18T05:20:47.775Z,61.07
2023-02-18T05:23:15.734Z,65.93
2023-02-18T05:25:43.638Z,62.13
2023-02-18T05:28:11.418Z,62.07
2023-02-18T05:30:39.674Z,61.67
2023-02-18T05:33:07.444Z,61.90
2023-02-18T05:35:36.568Z,59.03
2023-02-18T05:38:04.368Z,58.83
2023-02-18T05:40:32.292Z,57.77
2023-02-18T05:43:00.095Z,57.93
2023-02-18T05:45:27.945Z,59.30
2023-02-18T05:47:55.760Z,57.43
2023-02-18T05:50:23.642Z,59.77
2023-02-18T05:52:52.788Z,60.27
2023-02-18T05:55:20.786Z,60.40
2023-02-18T05:57:48.575Z,56.27
2023-02-18T06:00:16.870Z,58.13
2023-02-18T06:02:44.696Z,57.87
2023-02-18T06:05:12.475Z,55.93
2023-02-18T06:07:40.291Z,54.67
2023-02-18T06:10:10.203Z,54.50
2023-02-18T06:12:37.986Z,55.97
2023-02-18T06:15:06.253Z,55.30
2023-02-18T06:17:34.021Z,53.93
2023-02-18T06:20:01.820Z,53.63
2023-02-18T06:22:29.661Z,57.30
2023-02-18T06:24:57.542Z,56.93
2023-02-18T06:27:26.729Z,58.33
2023-02-18T06:29:54.573Z,59.13
2023-02-18T06:32:22.509Z,60.90
2023-02-18T06:34:50.496Z,60.13
2023-02-18T06:37:18.258Z,59.23
2023-02-18T06:39:54.549Z,59.57
2023-02-18T06:42:22.348Z,59.73
2023-02-18T06:44:51.963Z,58.93
2023-02-18T06:47:19.788Z,58.63
2023-02-18T06:49:47.599Z,58.60
2023-02-18T06:52:15.527Z,61.07
2023-02-18T06:54:43.503Z,56.90
2023-02-18T06:57:11.336Z,59.23
2023-02-18T06:59:39.172Z,55.07
2023-02-18T07:02:08.459Z,54.30
2023-02-18T07:04:36.269Z,56.93
2023-02-18T07:07:03.973Z,54.37
2023-02-18T07:09:31.725Z,56.17
2023-02-18T07:11:59.540Z,55.33
2023-02-18T07:14:28.496Z,57.67
2023-02-18T07:16:56.292Z,58.07
2023-02-18T07:19:25.948Z,58.37
2023-02-18T07:21:54.454Z,54.63
2023-02-18T07:24:22.227Z,56.50
2023-02-18T07:26:50.166Z,55.37
2023-02-18T07:29:17.983Z,52.93
2023-02-18T07:31:45.857Z,55.13
2023-02-18T07:34:13.855Z,52.60
2023-02-18T07:36:43.476Z,50.83
2023-02-18T07:39:12.420Z,52.10
2023-02-18T07:41:40.595Z,50.87
2023-02-18T07:44:08.415Z,50.93
2023-02-18T07:46:36.165Z,50.80
2023-02-18T07:49:05.145Z,50.80
2023-02-18T07:51:33.170Z,49.93
2023-02-18T07:54:02.361Z,50.67
2023-02-18T07:56:30.195Z,50.43
2023-02-18T07:58:57.983Z,50.17
2023-02-18T08:01:27.254Z,51.13
2023-02-18T08:03:55.269Z,50.03
2023-02-18T08:06:27.173Z,51.63
2023-02-18T08:08:55.024Z,49.83
2023-02-18T08:11:24.283Z,50.60
2023-02-18T08:13:52.155Z,49.13
2023-02-18T08:16:22.188Z,50.67
2023-02-18T08:18:50.071Z,49.10
2023-02-18T08:21:18.668Z,49.07
2023-02-18T08:23:46.739Z,49.40
2023-02-18T08:26:14.739Z,49.47
2023-02-18T08:28:47.272Z,48.03
2023-02-18T08:31:18.401Z,51.23
2023-02-18T08:33:46.430Z,50.23
2023-02-18T08:36:14.679Z,52.17
2023-02-18T08:38:42.565Z,51.00
2023-02-18T08:41:11.166Z,51.40
2023-02-18T08:43:39.114Z,50.33
2023-02-18T08:46:08.413Z,49.37
2023-02-18T08:48:43.813Z,49.87
2023-02-18T08:51:17.426Z,51.37
2023-02-18T08:53:46.356Z,53.77
2023-02-18T08:56:14.828Z,52.97
2023-02-18T08:58:42.912Z,52.03
2023-02-18T09:01:13.878Z,51.77
2023-02-18T09:03:41.752Z,48.63
2023-02-18T09:06:09.756Z,50.07
2023-02-18T09:08:37.517Z,50.60
2023-02-18T09:11:06.108Z,51.87
2023-02-18T09:13:34.473Z,51.60
2023-02-18T09:16:04.566Z,54.67
2023-02-18T09:18:36.406Z,57.33
2023-02-18T09:21:05.544Z,57.93
2023-02-18T09:23:34.523Z,58.00
2023-02-18T09:26:07.133Z,57.50
2023-02-18T09:28:34.954Z,55.97
2023-02-18T09:31:06.618Z,54.73
2023-02-18T09:33:38.288Z,56.63
2023-02-18T09:36:08.174Z,53.80
2023-02-18T09:38:36.485Z,55.47
2023-02-18T09:41:09.975Z,56.40
2023-02-18T09:43:41.694Z,58.70
2023-02-18T09:46:16.523Z,60.07
2023-02-18T09:48:46.136Z,59.20
2023-02-18T09:51:15.233Z,58.93
2023-02-18T09:53:44.905Z,56.63
2023-02-18T09:56:13.782Z,56.03
2023-02-18T09:58:42.402Z,59.77
2023-02-18T10:01:15.996Z,58.67
2023-02-18T10:03:45.330Z,59.90
2023-02-18T10:06:17.554Z,58.80
2023-02-18T10:08:46.804Z,59.93
2023-02-18T10:11:17.680Z,60.43
2023-02-18T10:13:46.565Z,59.00
2023-02-18T10:16:18.481Z,62.10
2023-02-18T10:18:49.882Z,64.33
2023-02-18T10:21:20.372Z,58.83
2023-02-18T10:23:54.830Z,60.03
2023-02-18T10:26:22.751Z,61.10
2023-02-18T10:28:52.419Z,61.93
2023-02-18T10:31:24.898Z,60.57
2023-02-18T10:34:00.344Z,57.63
2023-02-18T10:36:31.836Z,57.53
2023-02-18T10:39:35.068Z,61.77
2023-02-18T10:42:12.610Z,58.00
2023-02-18T10:44:46.114Z,60.60
2023-02-18T10:47:20.299Z,65.87
2023-02-18T10:50:01.830Z,67.50
2023-02-18T10:52:32.342Z,67.83
2023-02-18T10:55:01.646Z,66.07
2023-02-18T10:57:29.667Z,62.27
2023-02-18T11:00:00.366Z,65.90
2023-02-18T11:02:30.988Z,63.73
2023-02-18T11:05:01.980Z,61.07
2023-02-18T11:07:33.114Z,61.60
2023-02-18T11:10:03.504Z,58.33
2023-02-18T11:12:34.932Z,62.77
2023-02-18T11:15:09.301Z,59.57
2023-02-18T11:17:38.408Z,60.47
2023-02-18T11:20:26.399Z,61.60
2023-02-18T11:22:59.010Z,61.50
2023-02-18T11:25:28.270Z,61.50
2023-02-18T11:27:57.777Z,60.07
2023-02-18T11:30:29.143Z,60.20
2023-02-18T11:33:03.483Z,59.40
2023-02-18T11:35:33.674Z,60.07
2023-02-18T11:38:03.761Z,62.23
2023-02-18T11:40:34.556Z,61.50
2023-02-18T11:43:07.101Z,62.57
2023-02-18T11:45:36.292Z,62.13
2023-02-18T11:48:10.179Z,61.90
2023-02-18T11:50:40.440Z,62.57
2023-02-18T11:53:30.139Z,62.23
2023-02-18T11:55:59.373Z,60.00
2023-02-18T11:58:28.098Z,60.03
2023-02-18T12:00:58.304Z,61.40
2023-02-18T12:03:32.535Z,61.33
2023-02-18T12:06:08.298Z,63.27
2023-02-18T12:08:42.236Z,62.77
2023-02-18T12:11:14.253Z,60.40
2023-02-18T12:13:47.451Z,61.80
2023-02-18T12:16:27.551Z,62.07
2023-02-18T12:19:02.500Z,64.27
2023-02-18T12:21:40.589Z,63.33
2023-02-18T12:24:18.244Z,63.90
2023-02-18T12:26:52.800Z,60.33
2023-02-18T12:29:35.984Z,58.70
2023-02-18T12:32:17.792Z,59.60
2023-02-18T12:35:04.534Z,62.43
2023-02-18T12:37:51.494Z,61.47
2023-02-18T12:40:37.118Z,58.77
2023-02-18T12:43:09.215Z,58.40
2023-02-18T12:45:46.829Z,59.93
2023-02-18T12:48:39.852Z,59.50
2023-02-18T12:51:20.432Z,61.00
2023-02-18T12:54:02.517Z,58.87
2023-02-18T12:57:03.111Z,59.97
2023-02-18T12:59:55.375Z,57.00
2023-02-18T13:02:37.734Z,58.03
2023-02-18T13:05:12.429Z,58.17
2023-02-18T13:07:55.819Z,57.80
2023-02-18T13:10:55.438Z,56.87
2023-02-18T13:13:25.967Z,55.03
2023-02-18T13:15:56.247Z,57.47
2023-02-18T13:18:26.164Z,56.90
2023-02-18T13:20:56.897Z,58.73
2023-02-18T13:23:30.706Z,58.63
2023-02-18T13:26:01.702Z,58.90
2023-02-18T13:28:36.317Z,56.30
2023-02-18T13:31:17.397Z,57.00
2023-02-18T13:33:51.350Z,59.03
2023-02-18T13:36:31.902Z,55.47
2023-02-18T13:39:05.674Z,56.13
2023-02-18T13:41:38.991Z,56.07
2023-02-18T13:44:11.333Z,56.47
2023-02-18T13:46:53.067Z,54.40
2023-02-18T13:49:23.186Z,55.23
2023-02-18T13:51:52.117Z,56.03
2023-02-18T13:54:23.581Z,54.23
2023-02-18T13:56:55.572Z,53.67
2023-02-18T13:59:26.838Z,54.60
2023-02-18T14:01:54.725Z,54.17
2023-02-18T14:04:55.658Z,55.30
2023-02-18T14:07:44.530Z,53.00
2023-02-18T14:10:27.371Z,53.07
2023-02-18T14:13:24.304Z,51.70
2023-02-18T14:15:57.708Z,54.07
2023-02-18T14:18:36.958Z,52.77
2023-02-18T14:21:07.612Z,52.57
2023-02-18T14:23:56.984Z,52.83
2023-02-18T14:26:27.209Z,52.30
2023-02-18T14:29:01.715Z,51.13
2023-02-18T14:31:38.066Z,52.00
2023-02-18T14:34:33.617Z,51.90
2023-02-18T14:37:11.930Z,51.20
2023-02-18T14:39:50.005Z,51.70
2023-02-18T14:42:26.316Z,53.60
2023-02-18T14:45:05.579Z,52.93
2023-02-18T14:47:44.178Z,52.17
2023-02-18T14:50:14.797Z,51.40
2023-02-18T14:52:45.441Z,53.27
2023-02-18T14:55:21.275Z,49.90
2023-02-18T14:57:52.478Z,51.70
2023-02-18T15:00:23.626Z,49.33
2023-02-18T15:02:53.055Z,48.53
2023-02-18T15:05:23.079Z,46.63
2023-02-18T15:08:01.425Z,45.57
2023-02-18T15:10:39.137Z,47.43
2023-02-18T15:13:11.054Z,44.30
2023-02-18T15:15:40.237Z,44.60
2023-02-18T15:18:17.668Z,45.90
2023-02-18T15:20:46.153Z,45.73
2023-02-18T15:23:17.358Z,47.70
2023-02-18T15:25:50.469Z,49.10
2023-02-18T15:28:26.543Z,49.23
2023-02-18T15:30:58.809Z,49.47
2023-02-18T15:33:27.833Z,49.27
2023-02-18T15:36:02.011Z,51.13
2023-02-18T15:38:30.073Z,48.73
2023-02-18T15:40:58.029Z,51.00
2023-02-18T15:43:28.194Z,48.93
2023-02-18T15:45:59.012Z,49.37
2023-02-18T15:48:33.101Z,49.47
2023-02-18T15:51:16.453Z,51.43
2023-02-18T15:53:47.032Z,50.47
2023-02-18T15:56:22.014Z,50.37
2023-02-18T15:58:49.843Z,49.70
2023-02-18T16:01:28.094Z,50.60
2023-02-18T16:03:56.876Z,50.53
2023-02-18T16:06:26.225Z,50.83
2023-02-18T16:08:59.030Z,49.47
2023-02-18T16:11:28.860Z,49.93
2023-02-18T16:13:56.693Z,49.93
2023-02-18T16:16:29.835Z,51.40
2023-02-18T16:18:57.927Z,51.07
2023-02-18T16:21:32.863Z,52.73
2023-02-18T16:24:02.571Z,54.80
2023-02-18T16:26:33.345Z,54.10
2023-02-18T16:29:13.877Z,55.03
2023-02-18T16:31:43.617Z,55.87
2023-02-18T16:34:11.586Z,56.03
2023-02-18T16:36:59.462Z,56.33
2023-02-18T16:39:27.581Z,57.23
2023-02-18T16:41:55.330Z,59.37
2023-02-18T16:44:23.194Z,59.83
2023-02-18T16:46:52.398Z,61.10
2023-02-18T16:49:20.613Z,62.27
2023-02-18T16:51:50.251Z,58.13
2023-02-18T16:54:18.011Z,59.77
2023-02-18T16:56:45.724Z,56.13
2023-02-18T16:59:13.563Z,59.70
2023-02-18T17:01:44.257Z,56.60
2023-02-18T17:04:15.676Z,58.40
2023-02-18T17:06:45.039Z,73.70
2023-02-18T17:09:16.985Z,68.73
2023-02-18T17:11:45.251Z,63.40
2023-02-18T17:14:17.903Z,61.30
2023-02-18T17:16:45.973Z,61.07
2023-02-18T17:19:15.215Z,59.43
2023-02-18T17:21:42.990Z,57.03
2023-02-18T17:24:12.808Z,59.57
2023-02-18T17:26:40.868Z,57.10
2023-02-18T17:29:08.698Z,58.93
2023-02-18T17:31:38.712Z,58.87
2023-02-18T17:34:08.608Z,57.97
2023-02-18T17:36:45.330Z,57.73
2023-02-18T17:39:14.712Z,57.50
2023-02-18T17:41:44.091Z,59.23
2023-02-18T17:44:15.332Z,57.43
2023-02-18T17:46:43.293Z,57.67
2023-02-18T17:49:11.139Z,59.30
2023-02-18T17:51:40.536Z,62.87
2023-02-18T17:54:13.391Z,61.63
2023-02-18T17:56:41.497Z,61.90
2023-02-18T17:59:09.363Z,64.77
2023-02-18T18:01:37.378Z,63.40
2023-02-18T18:04:05.451Z,65.00
2023-02-18T18:06:36.074Z,62.97
2023-02-18T18:09:05.246Z,63.87
2023-02-18T18:11:33.005Z,65.90
2023-02-18T18:14:00.827Z,64.43
2023-02-18T18:16:28.804Z,64.77
2023-02-18T18:18:56.652Z,63.13
2023-02-18T18:21:29.816Z,63.37
2023-02-18T18:23:57.621Z,61.03
2023-02-18T18:26:26.896Z,63.60
2023-02-18T18:28:54.850Z,65.67
2023-02-18T18:31:22.812Z,64.97
2023-02-18T18:33:53.201Z,67.57
2023-02-18T18:36:23.877Z,65.30
2023-02-18T18:38:51.773Z,66.00
2023-02-18T18:41:21.230Z,64.90
2023-02-18T18:43:50.761Z,63.90
2023-02-18T18:46:18.915Z,65.73
2023-02-18T18:48:46.775Z,65.90
2023-02-18T18:51:15.987Z,67.07
2023-02-18T18:53:44.134Z,69.90
2023-02-18T18:56:13.191Z,68.63
2023-02-18T18:58:40.939Z,68.37
2023-02-18T19:01:15.964Z,68.83
2023-02-18T19:03:44.211Z,67.50
2023-02-18T19:06:12.265Z,65.30
2023-02-18T19:08:40.153Z,67.03
2023-02-18T19:11:08.371Z,63.77
2023-02-18T19:13:36.685Z,65.03
2023-02-18T19:16:07.086Z,62.83
2023-02-18T19:18:36.301Z,63.90
2023-02-18T19:21:04.752Z,63.30
2023-02-18T19:23:32.854Z,64.40
2023-02-18T19:26:00.801Z,64.90
2023-02-18T19:28:29.037Z,64.13
2023-02-18T19:30:56.911Z,69.27
2023-02-18T19:33:24.821Z,68.43
2023-02-18T19:35:53.957Z,67.37
2023-02-18T19:38:21.980Z,66.57
2023-02-18T19:40:49.770Z,61.87
2023-02-18T19:43:17.885Z,66.93
2023-02-18T19:45:47.451Z,64.90
2023-02-18T19:48:16.505Z,65.97
2023-02-18T19:50:44.504Z,66.23
2023-02-18T19:53:13.682Z,64.53
2023-02-18T19:55:41.493Z,67.53
2023-02-18T19:58:09.222Z,62.10
2023-02-18T20:00:37.026Z,66.47
2023-02-18T20:03:04.799Z,65.83
2023-02-18T20:05:32.581Z,66.00
2023-02-18T20:08:00.442Z,70.30
2023-02-18T20:10:29.579Z,68.20
2023-02-18T20:12:57.290Z,67.87
2023-02-18T20:15:25.364Z,66.17
2023-02-18T20:17:53.080Z,63.30
2023-02-18T20:20:21.501Z,63.40
2023-02-18T20:22:50.150Z,65.33
2023-02-18T20:25:18.213Z,64.37
2023-02-18T20:27:59.789Z,63.50
2023-02-18T20:30:28.949Z,62.17
2023-02-18T20:32:56.796Z,62.83
2023-02-18T20:35:24.690Z,62.67
2023-02-18T20:37:52.540Z,63.23
2023-02-18T20:40:20.550Z,62.27
2023-02-18T20:42:49.813Z,63.47
2023-02-18T20:45:17.746Z,61.90
2023-02-18T20:47:45.650Z,61.53
2023-02-18T20:50:13.516Z,61.90
2023-02-18T20:52:41.476Z,61.47
2023-02-18T20:55:09.512Z,58.77
2023-02-18T20:57:37.434Z,62.43
2023-02-18T21:00:07.822Z,62.37
2023-02-18T21:02:35.662Z,63.17
2023-02-18T21:05:03.492Z,60.47
2023-02-18T21:07:31.472Z,61.13
2023-02-18T21:10:02.043Z,62.73
2023-02-18T21:12:29.890Z,60.23
2023-02-18T21:14:57.708Z,61.70
2023-02-18T21:17:26.858Z,62.03
2023-02-18T21:19:54.656Z,60.30
2023-02-18T21:22:22.518Z,61.20
2023-02-18T21:24:51.381Z,56.03
2023-02-18T21:27:19.186Z,59.20
2023-02-18T21:29:47.075Z,60.47
2023-02-18T21:32:14.940Z,60.17
2023-02-18T21:34:44.239Z,60.93
2023-02-18T21:37:12.100Z,61.50
2023-02-18T21:39:41.332Z,61.67
2023-02-18T21:42:10.534Z,61.23
2023-02-18T21:44:42.532Z,58.60
2023-02-18T21:47:11.455Z,59.33
2023-02-18T21:49:39.390Z,60.40
2023-02-18T21:52:11.426Z,60.27
2023-02-18T21:54:40.894Z,60.70
2023-02-18T21:57:11.967Z,61.77
2023-02-18T21:59:40.019Z,59.40
2023-02-18T22:02:10.094Z,59.67
2023-02-18T22:04:38.158Z,59.90
2023-02-18T22:07:06.347Z,59.23
2023-02-18T22:09:36.486Z,59.00
2023-02-18T22:12:04.534Z,58.13
2023-02-18T22:14:32.778Z,58.63
2023-02-18T22:17:01.004Z,57.93
2023-02-18T22:19:29.120Z,57.43
2023-02-18T22:21:57.385Z,58.27
2023-02-18T22:24:25.546Z,56.57
2023-02-18T22:26:54.616Z,57.27
2023-02-18T22:29:22.732Z,55.77
2023-02-18T22:31:53.403Z,57.03
2023-02-18T22:34:21.785Z,54.50
2023-02-18T22:36:49.735Z,55.80
2023-02-18T22:39:17.919Z,54.77
2023-02-18T22:41:45.686Z,57.27
2023-02-18T22:44:16.247Z,54.87
2023-02-18T22:46:45.399Z,57.70
2023-02-18T22:49:13.382Z,56.20
2023-02-18T22:51:43.654Z,57.43
2023-02-18T22:54:14.204Z,56.37
2023-02-18T22:56:42.086Z,55.27
2023-02-18T22:59:11.672Z,55.30
2023-02-18T23:01:41.808Z,54.53
2023-02-18T23:04:11.325Z,56.37
2023-02-18T23:06:40.633Z,55.33
2023-02-18T23:09:10.219Z,55.10
2023-02-18T23:11:38.070Z,57.53
2023-02-18T23:14:21.569Z,57.77
2023-02-18T23:17:10.204Z,55.30
2023-02-18T23:19:38.469Z,56.90
2023-02-18T23:22:06.849Z,56.27
2023-02-18T23:24:35.164Z,55.87
2023-02-18T23:27:03.016Z,56.87
2023-02-18T23:29:30.798Z,55.73
2023-02-18T23:32:00.097Z,54.30
2023-02-18T23:34:28.583Z,56.03
2023-02-18T23:36:56.500Z,57.33
2023-02-18T23:39:24.329Z,55.47
2023-02-18T23:41:52.862Z,55.00
2023-02-18T23:44:22.916Z,59.63
2023-02-18T23:46:51.370Z,54.13
2023-02-18T23:49:24.659Z,56.27
2023-02-18T23:51:53.259Z,55.80
2023-02-18T23:54:21.263Z,55.43
2023-02-18T23:56:49.540Z,54.13
2023-02-18T23:59:17.693Z,55.47
